createdAt,value
2018-02-25T00:01:16.601Z,4.30
2018-02-25T00:03:44.227Z,4.83
2018-02-25T00:06:12.633Z,5.10
2018-02-25T00:08:41.031Z,4.50
2018-02-25T00:11:08.656Z,4.83
2018-02-25T00:13:36.247Z,5.17
2018-02-25T00:16:03.880Z,4.60
2018-02-25T00:18:31.486Z,4.87
2018-02-25T00:20:59.115Z,5.80
2018-02-25T00:23:26.759Z,5.67
2018-02-25T00:25:55.138Z,5.13
2018-02-25T00:28:23.543Z,4.90
2018-02-25T00:30:51.954Z,5.23
2018-02-25T00:33:19.591Z,4.97
2018-02-25T00:35:47.221Z,4.83
2018-02-25T00:38:14.843Z,5.40
2018-02-25T00:40:42.476Z,5.73
2018-02-25T00:43:10.099Z,5.07
2018-02-25T00:45:38.523Z,6.07
2018-02-25T00:48:06.163Z,5.33
2018-02-25T00:50:34.551Z,5.80
2018-02-25T00:53:02.217Z,5.70
2018-02-25T00:55:29.836Z,5.60
2018-02-25T00:57:57.468Z,5.53
2018-02-25T01:00:25.899Z,5.97
2018-02-25T01:02:53.782Z,5.37
2018-02-25T01:05:21.432Z,5.93
2018-02-25T01:07:49.040Z,6.13
2018-02-25T01:10:16.679Z,5.60
2018-02-25T01:12:45.098Z,6.00
2018-02-25T01:15:12.723Z,6.40
2018-02-25T01:17:40.371Z,6.00
2018-02-25T01:20:07.998Z,6.07
2018-02-25T01:22:35.624Z,5.93
2018-02-25T01:25:03.287Z,6.27
2018-02-25T01:27:30.895Z,6.67
2018-02-25T01:29:58.557Z,5.93
2018-02-25T01:32:26.238Z,6.37
2018-02-25T01:34:53.842Z,5.77
2018-02-25T01:37:21.446Z,5.70
2018-02-25T01:39:49.029Z,6.10
2018-02-25T01:42:16.632Z,6.07
2018-02-25T01:44:44.206Z,5.97
2018-02-25T01:47:11.818Z,6.33
2018-02-25T01:49:39.418Z,5.67
2018-02-25T01:52:06.989Z,5.70
2018-02-25T01:54:34.589Z,5.60
2018-02-25T01:57:02.163Z,6.73
2018-02-25T01:59:29.768Z,6.20
2018-02-25T02:01:57.347Z,6.30
2018-02-25T02:04:24.971Z,6.80
2018-02-25T02:06:52.586Z,5.87
2018-02-25T02:09:20.922Z,6.10
2018-02-25T02:11:49.290Z,6.37
2018-02-25T02:14:16.875Z,6.40
2018-02-25T02:16:44.479Z,6.17
2018-02-25T02:19:12.078Z,6.13
2018-02-25T02:21:40.414Z,6.63
2018-02-25T02:24:08.014Z,6.27
2018-02-25T02:26:35.591Z,5.97
2018-02-25T02:29:03.231Z,6.57
2018-02-25T02:31:30.837Z,6.13
2018-02-25T02:33:58.411Z,5.87
2018-02-25T02:36:26.011Z,5.93
2018-02-25T02:38:54.352Z,6.77
2018-02-25T02:41:21.970Z,6.03
2018-02-25T02:43:50.366Z,6.13
2018-02-25T02:46:18.718Z,6.20
2018-02-25T02:48:46.319Z,6.27
2018-02-25T02:51:13.893Z,6.33
2018-02-25T02:53:41.500Z,6.10
2018-02-25T02:56:09.107Z,6.70
2018-02-25T02:58:36.685Z,6.27
2018-02-25T03:01:04.285Z,6.13
2018-02-25T03:03:32.650Z,6.70
2018-02-25T03:06:00.254Z,6.23
2018-02-25T03:08:28.637Z,7.07
2018-02-25T03:10:56.212Z,6.60
2018-02-25T03:13:24.588Z,6.23
2018-02-25T03:15:52.157Z,5.87
2018-02-25T03:18:19.846Z,7.13
2018-02-25T03:20:47.447Z,6.10
2018-02-25T03:23:15.016Z,6.63
2018-02-25T03:25:43.384Z,5.67
2018-02-25T03:28:10.959Z,6.00
2018-02-25T03:30:38.563Z,6.20
2018-02-25T03:33:06.189Z,5.60
2018-02-25T03:35:33.833Z,6.20
2018-02-25T03:38:01.433Z,6.43
2018-02-25T03:40:29.006Z,6.23
2018-02-25T03:42:56.602Z,6.40
2018-02-25T03:45:24.970Z,6.13
2018-02-25T03:47:52.546Z,6.10
2018-02-25T03:50:20.150Z,6.20
2018-02-25T03:52:48.494Z,5.93
2018-02-25T03:55:16.105Z,5.73
2018-02-25T04:09:26.738Z,6.40
2018-02-25T04:11:54.342Z,6.40
2018-02-25T04:14:21.937Z,6.43
2018-02-25T04:16:49.502Z,6.03
2018-02-25T04:19:17.098Z,5.57
2018-02-25T04:21:44.669Z,6.13
2018-02-25T04:24:12.272Z,6.17
2018-02-25T04:26:40.638Z,6.10
2018-02-25T04:29:08.214Z,5.97
2018-02-25T04:31:36.086Z,5.90
2018-02-25T04:34:03.658Z,6.07
2018-02-25T04:36:31.263Z,5.57
2018-02-25T04:38:58.863Z,6.50
2018-02-25T04:41:26.435Z,6.10
2018-02-25T04:43:54.415Z,5.60
2018-02-25T04:46:21.978Z,5.83
2018-02-25T04:48:49.587Z,5.87
2018-02-25T04:51:17.209Z,6.23
2018-02-25T04:53:44.799Z,6.20
2018-02-25T04:56:12.417Z,6.50
2018-02-25T04:58:39.990Z,6.03
2018-02-25T05:01:07.619Z,6.10
2018-02-25T05:03:35.201Z,6.33
2018-02-25T05:06:02.767Z,5.87
2018-02-25T05:08:30.357Z,6.00
2018-02-25T05:10:57.930Z,6.70
2018-02-25T05:13:26.298Z,6.13
2018-02-25T05:15:54.162Z,5.70
2018-02-25T05:18:21.762Z,6.23
2018-02-25T05:20:49.355Z,6.30
2018-02-25T05:23:16.931Z,6.33
2018-02-25T05:25:44.526Z,6.50
2018-02-25T05:28:12.127Z,6.17
2018-02-25T05:30:39.736Z,6.07
2018-02-25T05:33:07.348Z,6.40
2018-02-25T05:35:34.922Z,6.43
2018-02-25T05:38:02.513Z,5.87
2018-02-25T05:40:30.090Z,6.30
2018-02-25T05:42:57.687Z,6.60
2018-02-25T05:45:25.283Z,6.10
2018-02-25T05:47:52.858Z,6.33
2018-02-25T05:50:20.458Z,6.43
2018-02-25T05:52:48.794Z,6.30
2018-02-25T05:55:16.390Z,6.23
2018-02-25T05:57:43.985Z,6.93
2018-02-25T06:00:11.561Z,7.20
2018-02-25T06:02:39.162Z,6.83
2018-02-25T06:05:06.734Z,7.10
2018-02-25T06:07:34.467Z,6.37
2018-02-25T06:10:02.070Z,6.60
2018-02-25T06:12:30.414Z,7.03
2018-02-25T06:14:58.014Z,6.50
2018-02-25T06:17:25.594Z,6.73
2018-02-25T06:19:53.198Z,5.67
2018-02-25T06:22:20.810Z,6.53
2018-02-25T06:24:48.386Z,6.80
2018-02-25T06:27:16.001Z,6.50
2018-02-25T06:29:44.358Z,6.80
2018-02-25T06:32:11.978Z,7.67
2018-02-25T06:34:39.546Z,7.20
2018-02-25T06:37:07.225Z,7.47
2018-02-25T06:39:34.803Z,7.03
2018-02-25T06:42:02.405Z,7.37
2018-02-25T06:44:30.338Z,7.43
2018-02-25T06:46:58.735Z,6.83
2018-02-25T06:49:27.106Z,6.50
2018-02-25T06:51:54.679Z,6.73
2018-02-25T06:54:22.278Z,6.40
2018-02-25T06:56:50.254Z,6.83
2018-02-25T06:59:18.627Z,6.23
2018-02-25T07:01:46.295Z,6.93
2018-02-25T07:04:13.874Z,6.53
2018-02-25T07:06:41.482Z,6.90
2018-02-25T07:09:09.045Z,5.60
2018-02-25T07:11:36.642Z,6.77
2018-02-25T07:14:04.214Z,6.97
2018-02-25T07:16:31.939Z,6.80
2018-02-25T07:19:00.307Z,5.90
2018-02-25T07:24:37.146Z,6.73
2018-02-25T07:27:04.746Z,6.50
2018-02-25T07:29:33.113Z,7.10
2018-02-25T07:32:00.686Z,7.10
2018-02-25T07:34:28.289Z,6.60
2018-02-25T07:36:55.858Z,6.47
2018-02-25T07:39:24.227Z,6.83
2018-02-25T07:41:51.845Z,6.73
2018-02-25T07:44:19.409Z,5.97
2018-02-25T07:46:47.022Z,6.40
2018-02-25T07:49:14.595Z,6.57
2018-02-25T07:51:42.194Z,6.63
2018-02-25T07:54:09.846Z,6.63
2018-02-25T07:56:37.426Z,6.50
2018-02-25T07:59:05.074Z,5.37
2018-02-25T08:01:32.726Z,5.90
2018-02-25T08:04:00.378Z,6.30
2018-02-25T08:06:28.743Z,6.20
2018-02-25T08:08:56.425Z,5.90
2018-02-25T08:11:24.103Z,6.00
2018-02-25T08:13:51.671Z,5.93
2018-02-25T08:16:19.270Z,6.73
2018-02-25T08:18:47.610Z,5.50
2018-02-25T08:21:15.207Z,5.60
2018-02-25T08:23:42.810Z,6.23
2018-02-25T08:26:10.382Z,6.00
2018-02-25T08:28:37.991Z,5.77
2018-02-25T08:34:03.171Z,5.90
2018-02-25T08:36:30.737Z,5.63
2018-02-25T08:38:58.340Z,6.33
2018-02-25T08:41:26.671Z,6.00
2018-02-25T08:43:54.279Z,5.90
2018-02-25T08:46:22.642Z,5.67
2018-02-25T08:48:50.209Z,6.33
2018-02-25T08:51:17.801Z,6.27
2018-02-25T08:53:45.379Z,5.83
2018-02-25T08:56:12.982Z,5.93
2018-02-25T09:01:59.445Z,6.00
2018-02-25T09:04:27.925Z,5.53
2018-02-25T09:06:56.285Z,5.00
2018-02-25T09:09:23.878Z,5.60
2018-02-25T09:11:51.454Z,5.90
2018-02-25T09:14:19.054Z,5.57
2018-02-25T09:16:46.622Z,5.30
2018-02-25T09:19:14.990Z,5.90
2018-02-25T09:21:43.354Z,5.07
2018-02-25T09:24:10.926Z,5.43
2018-02-25T09:26:38.530Z,4.57
2018-02-25T09:29:06.106Z,4.67
2018-02-25T09:31:34.475Z,4.70
2018-02-25T09:34:02.069Z,4.90
2018-02-25T09:36:29.799Z,4.53
2018-02-25T09:38:57.398Z,4.77
2018-02-25T09:41:24.996Z,4.87
2018-02-25T09:43:53.867Z,4.67
2018-02-25T09:46:22.234Z,4.40
2018-02-25T09:48:49.801Z,4.33
2018-02-25T09:51:17.401Z,5.10
2018-02-25T09:53:44.978Z,4.53
2018-02-25T09:56:13.570Z,4.57
2018-02-25T09:58:41.178Z,4.77
2018-02-25T10:01:09.514Z,4.10
2018-02-25T10:03:37.114Z,4.70
2018-02-25T10:06:04.682Z,4.40
2018-02-25T10:08:32.288Z,3.70
2018-02-25T10:11:00.654Z,4.67
2018-02-25T10:13:28.295Z,4.17
2018-02-25T10:15:55.905Z,4.37
2018-02-25T10:18:23.485Z,4.07
2018-02-25T10:20:51.091Z,4.17
2018-02-25T10:23:18.686Z,4.37
2018-02-25T10:25:46.264Z,4.00
2018-02-25T10:28:13.871Z,4.07
2018-02-25T10:30:41.438Z,3.73
2018-02-25T10:33:09.030Z,5.00
2018-02-25T10:35:37.391Z,4.43
2018-02-25T10:38:04.967Z,4.03
2018-02-25T10:40:33.357Z,3.70
2018-02-25T10:43:00.997Z,3.53
2018-02-25T10:45:28.592Z,3.77
2018-02-25T10:47:56.190Z,3.97
2018-02-25T10:50:23.764Z,4.80
2018-02-25T10:52:51.370Z,4.83
2018-02-25T10:55:19.710Z,4.70
2018-02-25T10:57:47.518Z,4.20
2018-02-25T11:00:29.999Z,3.80
2018-02-25T11:02:57.595Z,3.63
2018-02-25T11:05:28.166Z,3.93
2018-02-25T11:07:56.531Z,4.10
2018-02-25T11:10:24.138Z,3.47
2018-02-25T11:12:52.469Z,3.80
2018-02-25T11:18:27.373Z,3.90
2018-02-25T11:20:54.970Z,4.03
2018-02-25T11:23:23.338Z,3.93
2018-02-25T11:25:50.910Z,4.27
2018-02-25T11:28:18.502Z,4.10
2018-02-25T11:30:46.842Z,3.60
2018-02-25T11:33:14.447Z,3.60
2018-02-25T11:35:42.051Z,3.80
2018-02-25T11:38:10.390Z,3.73
2018-02-25T11:40:37.990Z,3.50
2018-02-25T11:43:05.562Z,4.07
2018-02-25T11:45:33.166Z,3.67
2018-02-25T11:48:01.530Z,3.83
2018-02-25T11:50:29.106Z,4.03
2018-02-25T11:52:56.714Z,3.40
2018-02-25T11:55:24.329Z,3.47
2018-02-25T11:57:51.907Z,3.60
2018-02-25T12:00:19.501Z,3.73
2018-02-25T12:02:47.074Z,3.80
2018-02-25T12:05:14.669Z,3.77
2018-02-25T12:07:43.010Z,3.90
2018-02-25T12:10:10.606Z,3.63
2018-02-25T12:12:38.214Z,3.43
2018-02-25T12:15:05.786Z,4.53
2018-02-25T12:17:33.386Z,3.50
2018-02-25T12:20:00.962Z,3.90
2018-02-25T12:22:29.327Z,4.60
2018-02-25T12:24:58.018Z,3.60
2018-02-25T12:27:25.612Z,3.90
2018-02-25T12:29:53.205Z,3.30
2018-02-25T12:32:20.775Z,3.30
2018-02-25T12:34:48.395Z,3.77
2018-02-25T12:37:16.762Z,3.77
2018-02-25T12:39:44.445Z,3.53
2018-02-25T12:42:12.091Z,3.40
2018-02-25T12:44:39.695Z,3.90
2018-02-25T12:47:07.354Z,3.70
2018-02-25T12:49:34.999Z,3.33
2018-02-25T12:52:02.831Z,3.77
2018-02-25T12:54:31.302Z,3.17
2018-02-25T12:56:59.010Z,3.37
2018-02-25T12:59:27.515Z,3.40
2018-02-25T13:01:59.678Z,3.50
2018-02-25T13:04:28.097Z,3.20
2018-02-25T13:06:55.884Z,3.23
2018-02-25T13:09:23.631Z,3.40
2018-02-25T13:11:52.075Z,3.40
2018-02-25T13:14:19.641Z,3.60
2018-02-25T13:16:47.231Z,3.20
2018-02-25T13:19:14.830Z,3.00
2018-02-25T13:21:42.399Z,4.80
2018-02-25T13:24:10.758Z,2.87
2018-02-25T13:26:38.351Z,2.80
2018-02-25T13:29:05.918Z,4.37
2018-02-25T13:31:33.510Z,3.80
2018-02-25T13:34:01.083Z,2.80
2018-02-25T13:36:28.677Z,2.60
2018-02-25T13:38:57.150Z,2.50
2018-02-25T13:41:25.490Z,2.73
2018-02-25T13:43:53.110Z,2.60
2018-02-25T13:46:20.674Z,2.77
2018-02-25T13:48:49.050Z,2.70
2018-02-25T13:51:16.647Z,2.40
2018-02-25T13:53:44.218Z,3.27
2018-02-25T13:56:11.819Z,2.43
2018-02-25T13:58:39.430Z,2.77
2018-02-25T14:01:07.107Z,2.67
2018-02-25T14:03:34.874Z,2.50
2018-02-25T14:06:02.846Z,2.57
2018-02-25T14:08:30.615Z,2.23
2018-02-25T14:10:58.177Z,2.17
2018-02-25T14:13:25.775Z,2.17
2018-02-25T14:15:53.370Z,2.20
2018-02-25T14:18:20.935Z,4.80
2018-02-25T14:20:48.534Z,2.50
2018-02-25T14:23:16.111Z,2.40
2018-02-25T14:25:43.710Z,2.07
2018-02-25T14:28:11.310Z,2.40
2018-02-25T14:30:38.874Z,2.20
2018-02-25T14:33:06.473Z,2.40
2018-02-25T14:35:34.050Z,2.47
2018-02-25T14:38:01.666Z,1.93
2018-02-25T14:40:30.035Z,2.10
2018-02-25T14:42:58.387Z,2.27
2018-02-25T14:45:25.984Z,2.10
2018-02-25T14:47:53.574Z,2.10
2018-02-25T14:50:21.174Z,2.40
2018-02-25T14:53:03.516Z,2.10
2018-02-25T14:55:31.148Z,1.80
2018-02-25T14:57:59.511Z,2.23
2018-02-25T15:00:28.018Z,2.10
2018-02-25T15:02:55.822Z,2.07
2018-02-25T15:05:24.154Z,2.10
2018-02-25T15:07:51.837Z,1.90
2018-02-25T15:10:19.503Z,1.97
2018-02-25T15:12:47.113Z,1.90
2018-02-25T15:15:14.709Z,1.90
2018-02-25T15:17:43.046Z,2.37
2018-02-25T15:20:10.647Z,2.13
2018-02-25T15:22:38.350Z,1.80
2018-02-25T15:25:06.686Z,1.77
2018-02-25T15:27:34.282Z,2.00
2018-02-25T15:30:01.859Z,2.03
2018-02-25T15:32:29.459Z,2.43
2018-02-25T15:34:57.818Z,2.57
2018-02-25T15:37:25.391Z,1.90
2018-02-25T15:39:52.995Z,1.90
2018-02-25T15:42:20.565Z,2.00
2018-02-25T15:44:48.186Z,2.10
2018-02-25T15:47:15.759Z,2.03
2018-02-25T15:49:43.360Z,3.60
2018-02-25T15:52:11.020Z,2.20
2018-02-25T15:54:43.687Z,17.03
2018-02-25T15:57:11.282Z,2.17
2018-02-25T15:59:38.850Z,1.70
2018-02-25T16:02:06.449Z,2.10
2018-02-25T16:04:34.031Z,19.77
2018-02-25T16:07:02.393Z,2.40
2018-02-25T16:09:29.995Z,1.90
2018-02-25T16:23:43.288Z,5.80
2018-02-25T16:26:11.626Z,2.67
2018-02-25T16:28:39.226Z,2.30
2018-02-25T16:31:07.070Z,2.00
2018-02-25T16:33:35.423Z,3.17
2018-02-25T16:36:03.018Z,5.30
2018-02-25T16:38:30.590Z,5.13
2018-02-25T16:40:58.186Z,2.40
2018-02-25T16:43:25.882Z,5.07
2018-02-25T16:45:53.454Z,2.93
2018-02-25T16:48:21.063Z,2.40
2018-02-25T16:50:48.638Z,2.40
2018-02-25T16:53:16.282Z,2.07
2018-02-25T16:55:43.870Z,3.30
2018-02-25T16:58:12.211Z,2.17
2018-02-25T17:00:39.810Z,2.60
2018-02-25T17:03:07.391Z,3.30
2018-02-25T17:05:34.990Z,2.77
2018-02-25T17:08:02.562Z,2.47
2018-02-25T17:10:30.166Z,4.00
2018-02-25T17:13:15.624Z,4.67
2018-02-25T17:15:43.522Z,6.07
2018-02-25T17:18:11.138Z,3.70
2018-02-25T17:20:38.707Z,3.83
2018-02-25T17:23:06.301Z,3.80
2018-02-25T17:25:33.870Z,4.10
2018-02-25T17:28:01.664Z,3.53
2018-02-25T17:36:28.779Z,6.80
2018-02-25T17:38:58.883Z,3.97
2018-02-25T17:41:26.754Z,5.00
2018-02-25T17:43:54.318Z,3.70
2018-02-25T17:46:21.910Z,4.00
2018-02-25T17:48:52.255Z,5.00
2018-02-25T17:51:19.849Z,3.77
2018-02-25T17:53:47.456Z,4.73
2018-02-25T17:56:15.032Z,6.40
2018-02-25T17:58:42.626Z,3.30
2018-02-25T18:01:10.394Z,3.97
2018-02-25T18:03:38.001Z,5.50
2018-02-25T18:06:05.734Z,3.57
2018-02-25T18:08:34.683Z,3.20
2018-02-25T18:11:03.082Z,4.37
2018-02-25T18:13:30.649Z,5.57
2018-02-25T18:15:58.251Z,4.80
2018-02-25T18:18:26.619Z,5.60
2018-02-25T18:20:54.190Z,9.17
2018-02-25T18:23:21.846Z,4.30
2018-02-25T18:25:49.418Z,5.33
2018-02-25T18:28:17.023Z,3.50
2018-02-25T18:30:45.401Z,3.10
2018-02-25T18:33:12.984Z,2.90
2018-02-25T18:35:40.638Z,3.70
2018-02-25T18:38:08.253Z,3.30
2018-02-25T18:52:11.890Z,2.90
2018-02-25T18:54:40.314Z,3.20
2018-02-25T18:57:07.910Z,3.00
2018-02-25T18:59:36.248Z,3.00
2018-02-25T19:02:04.623Z,2.60
2018-02-25T19:04:32.222Z,3.00
2018-02-25T19:07:00.994Z,2.33
2018-02-25T19:09:28.597Z,2.93
2018-02-25T19:11:56.978Z,2.53
2018-02-25T19:14:25.319Z,2.50
2018-02-25T19:16:53.702Z,2.50
2018-02-25T19:19:21.297Z,2.33
2018-02-25T19:21:48.867Z,2.73
2018-02-25T19:24:33.482Z,2.70
2018-02-25T19:27:01.850Z,2.53
2018-02-25T19:29:29.536Z,2.87
2018-02-25T19:31:57.844Z,2.30
2018-02-25T19:34:29.233Z,2.73
2018-02-25T19:37:03.483Z,2.90
2018-02-25T19:39:36.993Z,2.60
2018-02-25T19:42:04.745Z,2.43
2018-02-25T19:44:33.986Z,2.57
2018-02-25T19:47:01.590Z,2.27
2018-02-25T19:49:29.925Z,2.43
2018-02-25T19:51:57.529Z,2.50
2018-02-25T19:54:25.907Z,2.80
2018-02-25T19:56:53.795Z,2.57
2018-02-25T19:59:21.402Z,3.37
2018-02-25T20:01:49.735Z,3.60
2018-02-25T20:04:17.335Z,2.70
2018-02-25T20:06:45.015Z,2.50
2018-02-25T20:09:12.603Z,2.70
2018-02-25T20:11:40.198Z,3.40
2018-02-25T20:14:08.530Z,2.47
2018-02-25T20:16:36.140Z,2.67
2018-02-25T20:19:04.034Z,2.93
2018-02-25T20:21:32.371Z,2.60
2018-02-25T20:23:59.997Z,2.63
2018-02-25T20:26:28.329Z,2.77
2018-02-25T20:28:55.957Z,2.83
2018-02-25T20:31:24.298Z,2.90
2018-02-25T20:33:51.899Z,2.37
2018-02-25T20:36:19.475Z,2.60
2018-02-25T20:38:47.070Z,2.80
2018-02-25T20:41:15.429Z,2.80
2018-02-25T20:43:42.997Z,2.40
2018-02-25T20:46:11.362Z,2.30
2018-02-25T20:48:39.069Z,2.00
2018-02-25T20:51:06.669Z,2.70
2018-02-25T20:53:35.034Z,2.20
2018-02-25T20:56:03.682Z,2.70
2018-02-25T20:58:31.287Z,2.73
2018-02-25T21:00:58.879Z,3.30
2018-02-25T21:03:27.832Z,2.93
2018-02-25T21:05:55.402Z,2.83
2018-02-25T21:08:23.002Z,2.70
2018-02-25T21:10:50.634Z,2.37
2018-02-25T21:13:18.967Z,2.67
2018-02-25T21:15:46.566Z,2.60
2018-02-25T21:18:14.139Z,2.60
2018-02-25T21:20:42.458Z,2.87
2018-02-25T21:23:10.838Z,2.70
2018-02-25T21:25:39.174Z,2.57
2018-02-25T21:28:32.594Z,2.47
2018-02-25T21:31:00.166Z,2.63
2018-02-25T21:33:27.778Z,2.83
2018-02-25T21:35:55.378Z,2.90
2018-02-25T21:38:23.064Z,2.77
2018-02-25T21:40:51.249Z,3.70
2018-02-25T21:43:18.911Z,3.13
2018-02-25T21:45:46.582Z,2.77
2018-02-25T21:48:14.230Z,2.70
2018-02-25T21:50:42.600Z,2.60
2018-02-25T21:53:15.205Z,2.60
2018-02-25T21:55:49.146Z,2.47
2018-02-25T21:58:22.468Z,2.70
2018-02-25T22:00:55.891Z,2.77
2018-02-25T22:03:29.159Z,2.60
2018-02-25T22:05:57.572Z,3.00
2018-02-25T22:08:25.298Z,2.67
2018-02-25T22:10:52.907Z,2.80
2018-02-25T22:13:21.242Z,2.60
2018-02-25T22:15:48.843Z,2.90
2018-02-25T22:18:17.183Z,2.67
2018-02-25T22:20:44.789Z,2.40
2018-02-25T22:23:12.398Z,2.73
2018-02-25T22:25:40.759Z,2.80
2018-02-25T22:28:08.353Z,2.93
2018-02-25T22:30:36.694Z,2.87
2018-02-25T22:33:04.359Z,3.00
2018-02-25T22:35:32.799Z,2.90
2018-02-25T22:38:00.703Z,3.07
2018-02-25T22:40:30.986Z,2.90
2018-02-25T22:42:58.586Z,2.70
2018-02-25T22:45:26.182Z,3.17
2018-02-25T22:47:54.547Z,2.90
2018-02-25T22:50:22.110Z,3.17
2018-02-25T22:52:49.711Z,3.00
2018-02-25T22:55:18.047Z,3.10
2018-02-25T22:57:45.642Z,3.93
2018-02-25T23:00:23.990Z,4.50
2018-02-25T23:02:52.349Z,3.27
2018-02-25T23:05:19.952Z,3.50
2018-02-25T23:07:47.529Z,3.20
2018-02-25T23:10:19.813Z,3.33
2018-02-25T23:12:48.666Z,5.10
2018-02-25T23:15:26.782Z,3.80
2018-02-25T23:17:54.390Z,3.23
2018-02-25T23:20:21.958Z,3.07
2018-02-25T23:22:49.557Z,3.03
2018-02-25T23:25:17.886Z,2.83
2018-02-25T23:27:45.519Z,2.90
2018-02-25T23:30:13.887Z,3.03
2018-02-25T23:32:41.467Z,3.03
2018-02-25T23:35:09.065Z,2.80
2018-02-25T23:37:37.402Z,3.07
2018-02-25T23:40:05.002Z,3.23
2018-02-25T23:42:32.594Z,2.73
2018-02-25T23:45:00.926Z,3.00
2018-02-25T23:47:28.530Z,2.77
2018-02-25T23:49:56.107Z,3.17
2018-02-25T23:52:23.702Z,3.23
2018-02-25T23:54:52.070Z,3.07
2018-02-25T23:57:19.645Z,2.83
2018-02-25T23:59:47.237Z,2.77
